sensor_id;sensor_type;location;lat;lon;timestamp;P1;durP1;ratioP1;P2;durP2;ratioP2
10226;SDS011;15634;48.766;2.272;2024-02-04T00:00:27;4.07;;;2.20;;
10226;SDS011;15634;48.766;2.272;2024-02-04T00:02:53;4.07;;;2.25;;
10226;SDS011;15634;48.766;2.272;2024-02-04T00:05:19;6.82;;;2.25;;
10226;SDS011;15634;48.766;2.272;2024-02-04T00:07:45;4.15;;;2.10;;
10226;SDS011;15634;48.766;2.272;2024-02-04T00:10:11;5.70;;;2.17;;
10226;SDS011;15634;48.766;2.272;2024-02-04T00:12:40;7.20;;;2.50;;
10226;SDS011;15634;48.766;2.272;2024-02-04T00:15:06;4.45;;;2.33;;
10226;SDS011;15634;48.766;2.272;2024-02-04T00:17:33;6.47;;;2.42;;
10226;SDS011;15634;48.766;2.272;2024-02-04T00:20:02;4.97;;;2.33;;
10226;SDS011;15634;48.766;2.272;2024-02-04T00:22:30;8.07;;;2.42;;
10226;SDS011;15634;48.766;2.272;2024-02-04T00:24:56;6.47;;;2.75;;
10226;SDS011;15634;48.766;2.272;2024-02-04T00:27:26;5.63;;;2.50;;
10226;SDS011;15634;48.766;2.272;2024-02-04T00:29:52;4.72;;;2.30;;
10226;SDS011;15634;48.766;2.272;2024-02-04T00:32:18;6.72;;;2.60;;
10226;SDS011;15634;48.766;2.272;2024-02-04T00:34:44;6.47;;;2.53;;
10226;SDS011;15634;48.766;2.272;2024-02-04T00:37:10;6.05;;;2.95;;
10226;SDS011;15634;48.766;2.272;2024-02-04T00:39:36;7.57;;;2.63;;
10226;SDS011;15634;48.766;2.272;2024-02-04T00:42:02;5.72;;;2.20;;
10226;SDS011;15634;48.766;2.272;2024-02-04T00:44:27;5.60;;;2.33;;
10226;SDS011;15634;48.766;2.272;2024-02-04T00:46:53;5.05;;;2.13;;
10226;SDS011;15634;48.766;2.272;2024-02-04T00:49:19;5.93;;;2.40;;
10226;SDS011;15634;48.766;2.272;2024-02-04T00:51:45;7.35;;;2.63;;
10226;SDS011;15634;48.766;2.272;2024-02-04T00:54:11;6.15;;;2.20;;
10226;SDS011;15634;48.766;2.272;2024-02-04T00:56:37;7.35;;;2.58;;
10226;SDS011;15634;48.766;2.272;2024-02-04T00:59:04;7.55;;;2.38;;
10226;SDS011;15634;48.766;2.272;2024-02-04T01:01:30;6.57;;;2.50;;
10226;SDS011;15634;48.766;2.272;2024-02-04T01:03:56;4.82;;;2.08;;
10226;SDS011;15634;48.766;2.272;2024-02-04T01:06:22;7.13;;;2.28;;
10226;SDS011;15634;48.766;2.272;2024-02-04T01:08:48;6.63;;;2.58;;
10226;SDS011;15634;48.766;2.272;2024-02-04T01:11:14;5.70;;;2.28;;
10226;SDS011;15634;48.766;2.272;2024-02-04T01:13:40;4.60;;;1.98;;
10226;SDS011;15634;48.766;2.272;2024-02-04T01:16:06;5.80;;;2.30;;
10226;SDS011;15634;48.766;2.272;2024-02-04T01:18:32;4.97;;;2.35;;
10226;SDS011;15634;48.766;2.272;2024-02-04T01:20:58;5.55;;;2.30;;
10226;SDS011;15634;48.766;2.272;2024-02-04T01:23:25;8.50;;;2.42;;
10226;SDS011;15634;48.766;2.272;2024-02-04T01:25:51;4.07;;;2.25;;
10226;SDS011;15634;48.766;2.272;2024-02-04T01:28:17;7.30;;;2.28;;
10226;SDS011;15634;48.766;2.272;2024-02-04T01:30:43;7.30;;;2.28;;
10226;SDS011;15634;48.766;2.272;2024-02-04T01:33:09;7.63;;;2.70;;
10226;SDS011;15634;48.766;2.272;2024-02-04T01:35:35;6.28;;;2.10;;
10226;SDS011;15634;48.766;2.272;2024-02-04T01:38:01;4.35;;;2.55;;
10226;SDS011;15634;48.766;2.272;2024-02-04T01:40:27;5.00;;;2.10;;
10226;SDS011;15634;48.766;2.272;2024-02-04T01:42:53;4.22;;;2.30;;
10226;SDS011;15634;48.766;2.272;2024-02-04T01:45:19;7.07;;;2.50;;
10226;SDS011;15634;48.766;2.272;2024-02-04T01:47:45;3.50;;;2.30;;
10226;SDS011;15634;48.766;2.272;2024-02-04T01:50:11;6.03;;;2.58;;
10226;SDS011;15634;48.766;2.272;2024-02-04T01:52:37;6.47;;;2.70;;
10226;SDS011;15634;48.766;2.272;2024-02-04T01:55:05;9.32;;;2.63;;
10226;SDS011;15634;48.766;2.272;2024-02-04T01:57:31;4.68;;;2.35;;
10226;SDS011;15634;48.766;2.272;2024-02-04T01:59:57;7.40;;;3.53;;
10226;SDS011;15634;48.766;2.272;2024-02-04T02:02:25;16.80;;;6.38;;
10226;SDS011;15634;48.766;2.272;2024-02-04T02:04:51;10.27;;;4.47;;
10226;SDS011;15634;48.766;2.272;2024-02-04T02:07:20;6.10;;;3.80;;
10226;SDS011;15634;48.766;2.272;2024-02-04T02:09:47;20.40;;;7.93;;
10226;SDS011;15634;48.766;2.272;2024-02-04T02:12:22;14.85;;;3.38;;
10226;SDS011;15634;48.766;2.272;2024-02-04T02:14:51;5.30;;;2.80;;
10226;SDS011;15634;48.766;2.272;2024-02-04T02:22:38;6.47;;;2.72;;
10226;SDS011;15634;48.766;2.272;2024-02-04T02:25:05;25.35;;;11.52;;
10226;SDS011;15634;48.766;2.272;2024-02-04T02:27:33;18.08;;;6.68;;
10226;SDS011;15634;48.766;2.272;2024-02-04T02:29:59;9.32;;;3.67;;
10226;SDS011;15634;48.766;2.272;2024-02-04T02:32:24;6.53;;;2.40;;
10226;SDS011;15634;48.766;2.272;2024-02-04T02:34:50;6.47;;;2.50;;
10226;SDS011;15634;48.766;2.272;2024-02-04T02:37:22;5.78;;;2.47;;
10226;SDS011;15634;48.766;2.272;2024-02-04T02:40:01;6.43;;;2.30;;
10226;SDS011;15634;48.766;2.272;2024-02-04T02:42:29;7.00;;;2.65;;
10226;SDS011;15634;48.766;2.272;2024-02-04T02:44:56;5.22;;;2.40;;
10226;SDS011;15634;48.766;2.272;2024-02-04T02:47:22;7.78;;;2.45;;
10226;SDS011;15634;48.766;2.272;2024-02-04T02:49:52;7.85;;;2.63;;
10226;SDS011;15634;48.766;2.272;2024-02-04T02:52:19;7.25;;;2.20;;
10226;SDS011;15634;48.766;2.272;2024-02-04T02:54:45;4.85;;;2.38;;
10226;SDS011;15634;48.766;2.272;2024-02-04T02:57:11;6.30;;;2.25;;
10226;SDS011;15634;48.766;2.272;2024-02-04T02:59:37;4.97;;;2.45;;
10226;SDS011;15634;48.766;2.272;2024-02-04T03:02:03;6.65;;;2.60;;
10226;SDS011;15634;48.766;2.272;2024-02-04T03:04:29;5.85;;;2.10;;
10226;SDS011;15634;48.766;2.272;2024-02-04T03:06:55;3.63;;;2.08;;
10226;SDS011;15634;48.766;2.272;2024-02-04T03:09:21;6.25;;;2.20;;
10226;SDS011;15634;48.766;2.272;2024-02-04T03:11:47;4.85;;;2.20;;
10226;SDS011;15634;48.766;2.272;2024-02-04T03:14:16;5.35;;;2.35;;
10226;SDS011;15634;48.766;2.272;2024-02-04T03:16:45;5.63;;;2.15;;
10226;SDS011;15634;48.766;2.272;2024-02-04T03:19:11;5.53;;;2.30;;
10226;SDS011;15634;48.766;2.272;2024-02-04T03:21:37;6.85;;;2.60;;
10226;SDS011;15634;48.766;2.272;2024-02-04T03:24:03;5.43;;;2.17;;
10226;SDS011;15634;48.766;2.272;2024-02-04T03:26:29;8.18;;;2.42;;
10226;SDS011;15634;48.766;2.272;2024-02-04T03:28:55;6.72;;;2.28;;
10226;SDS011;15634;48.766;2.272;2024-02-04T03:31:21;4.53;;;2.30;;
10226;SDS011;15634;48.766;2.272;2024-02-04T03:33:48;8.00;;;2.28;;
10226;SDS011;15634;48.766;2.272;2024-02-04T03:36:21;3.72;;;2.25;;
10226;SDS011;15634;48.766;2.272;2024-02-04T03:38:48;7.47;;;2.50;;
10226;SDS011;15634;48.766;2.272;2024-02-04T03:41:14;4.00;;;2.10;;
10226;SDS011;15634;48.766;2.272;2024-02-04T03:43:40;4.50;;;2.10;;
10226;SDS011;15634;48.766;2.272;2024-02-04T03:46:06;5.43;;;2.40;;
10226;SDS011;15634;48.766;2.272;2024-02-04T03:48:32;3.03;;;2.10;;
10226;SDS011;15634;48.766;2.272;2024-02-04T03:51:00;3.97;;;1.92;;
10226;SDS011;15634;48.766;2.272;2024-02-04T03:53:26;5.47;;;2.45;;
10226;SDS011;15634;48.766;2.272;2024-02-04T03:55:52;4.75;;;2.20;;
10226;SDS011;15634;48.766;2.272;2024-02-04T03:58:19;4.80;;;2.08;;
10226;SDS011;15634;48.766;2.272;2024-02-04T04:00:54;5.97;;;2.25;;
10226;SDS011;15634;48.766;2.272;2024-02-04T04:03:20;7.63;;;2.35;;
10226;SDS011;15634;48.766;2.272;2024-02-04T04:05:46;5.35;;;2.05;;
10226;SDS011;15634;48.766;2.272;2024-02-04T04:08:12;3.95;;;2.20;;
10226;SDS011;15634;48.766;2.272;2024-02-04T04:10:38;5.78;;;2.38;;
10226;SDS011;15634;48.766;2.272;2024-02-04T04:13:04;6.15;;;2.30;;
10226;SDS011;15634;48.766;2.272;2024-02-04T04:15:30;5.97;;;2.17;;
10226;SDS011;15634;48.766;2.272;2024-02-04T04:17:56;6.20;;;2.22;;
10226;SDS011;15634;48.766;2.272;2024-02-04T04:20:21;3.92;;;1.98;;
10226;SDS011;15634;48.766;2.272;2024-02-04T04:22:47;5.80;;;1.95;;
10226;SDS011;15634;48.766;2.272;2024-02-04T04:25:13;4.68;;;1.90;;
10226;SDS011;15634;48.766;2.272;2024-02-04T04:27:39;8.30;;;2.35;;
10226;SDS011;15634;48.766;2.272;2024-02-04T04:30:06;3.50;;;1.60;;
10226;SDS011;15634;48.766;2.272;2024-02-04T04:32:33;3.08;;;2.00;;
10226;SDS011;15634;48.766;2.272;2024-02-04T04:34:59;5.47;;;1.98;;
10226;SDS011;15634;48.766;2.272;2024-02-04T04:37:25;5.70;;;2.08;;
10226;SDS011;15634;48.766;2.272;2024-02-04T04:39:51;5.25;;;2.10;;
10226;SDS011;15634;48.766;2.272;2024-02-04T04:42:17;4.13;;;1.75;;
10226;SDS011;15634;48.766;2.272;2024-02-04T04:44:43;5.28;;;1.80;;
10226;SDS011;15634;48.766;2.272;2024-02-04T04:47:09;8.25;;;2.10;;
10226;SDS011;15634;48.766;2.272;2024-02-04T04:49:34;3.40;;;1.83;;
10226;SDS011;15634;48.766;2.272;2024-02-04T04:52:00;1.92;;;1.55;;
10226;SDS011;15634;48.766;2.272;2024-02-04T04:54:29;5.28;;;1.90;;
10226;SDS011;15634;48.766;2.272;2024-02-04T04:56:55;3.85;;;1.50;;
10226;SDS011;15634;48.766;2.272;2024-02-04T04:59:21;4.72;;;1.88;;
10226;SDS011;15634;48.766;2.272;2024-02-04T05:01:50;4.18;;;1.70;;
10226;SDS011;15634;48.766;2.272;2024-02-04T05:04:16;6.47;;;2.10;;
10226;SDS011;15634;48.766;2.272;2024-02-04T05:06:48;4.70;;;1.85;;
10226;SDS011;15634;48.766;2.272;2024-02-04T05:09:14;6.32;;;1.98;;
10226;SDS011;15634;48.766;2.272;2024-02-04T05:11:41;3.10;;;1.58;;
10226;SDS011;15634;48.766;2.272;2024-02-04T05:14:07;2.53;;;1.75;;
10226;SDS011;15634;48.766;2.272;2024-02-04T05:16:33;4.00;;;1.90;;
10226;SDS011;15634;48.766;2.272;2024-02-04T05:18:58;6.95;;;1.70;;
10226;SDS011;15634;48.766;2.272;2024-02-04T05:21:24;4.22;;;1.73;;
10226;SDS011;15634;48.766;2.272;2024-02-04T05:23:50;4.20;;;1.80;;
10226;SDS011;15634;48.766;2.272;2024-02-04T05:26:19;3.08;;;1.75;;
10226;SDS011;15634;48.766;2.272;2024-02-04T05:28:45;4.72;;;1.92;;
10226;SDS011;15634;48.766;2.272;2024-02-04T05:31:11;6.28;;;2.10;;
10226;SDS011;15634;48.766;2.272;2024-02-04T05:33:37;5.30;;;1.80;;
10226;SDS011;15634;48.766;2.272;2024-02-04T05:36:03;3.08;;;1.70;;
10226;SDS011;15634;48.766;2.272;2024-02-04T05:38:30;4.10;;;1.80;;
10226;SDS011;15634;48.766;2.272;2024-02-04T05:40:55;6.30;;;2.10;;
10226;SDS011;15634;48.766;2.272;2024-02-04T05:43:21;2.72;;;1.65;;
10226;SDS011;15634;48.766;2.272;2024-02-04T05:45:47;2.97;;;1.80;;
10226;SDS011;15634;48.766;2.272;2024-02-04T05:48:13;6.13;;;1.67;;
10226;SDS011;15634;48.766;2.272;2024-02-04T05:50:39;4.45;;;1.70;;
10226;SDS011;15634;48.766;2.272;2024-02-04T05:53:05;2.85;;;1.70;;
10226;SDS011;15634;48.766;2.272;2024-02-04T05:55:31;3.13;;;1.70;;
10226;SDS011;15634;48.766;2.272;2024-02-04T05:57:57;4.57;;;1.95;;
10226;SDS011;15634;48.766;2.272;2024-02-04T06:00:23;3.88;;;2.17;;
10226;SDS011;15634;48.766;2.272;2024-02-04T06:02:49;3.55;;;2.00;;
10226;SDS011;15634;48.766;2.272;2024-02-04T06:05:15;6.90;;;2.08;;
10226;SDS011;15634;48.766;2.272;2024-02-04T06:07:44;4.47;;;1.75;;
10226;SDS011;15634;48.766;2.272;2024-02-04T06:10:09;3.90;;;2.13;;
10226;SDS011;15634;48.766;2.272;2024-02-04T06:12:35;7.70;;;1.95;;
10226;SDS011;15634;48.766;2.272;2024-02-04T06:15:02;4.22;;;1.90;;
10226;SDS011;15634;48.766;2.272;2024-02-04T06:17:28;4.35;;;1.75;;
10226;SDS011;15634;48.766;2.272;2024-02-04T06:19:54;3.97;;;1.60;;
10226;SDS011;15634;48.766;2.272;2024-02-04T06:22:21;4.28;;;1.67;;
10226;SDS011;15634;48.766;2.272;2024-02-04T06:24:47;3.63;;;1.50;;
10226;SDS011;15634;48.766;2.272;2024-02-04T06:27:15;3.83;;;1.70;;
10226;SDS011;15634;48.766;2.272;2024-02-04T06:29:40;1.95;;;1.40;;
10226;SDS011;15634;48.766;2.272;2024-02-04T06:32:06;2.53;;;1.65;;
10226;SDS011;15634;48.766;2.272;2024-02-04T06:34:32;4.65;;;1.60;;
10226;SDS011;15634;48.766;2.272;2024-02-04T06:36:58;5.10;;;1.65;;
10226;SDS011;15634;48.766;2.272;2024-02-04T06:39:24;2.20;;;1.42;;
10226;SDS011;15634;48.766;2.272;2024-02-04T06:41:50;4.93;;;1.80;;
10226;SDS011;15634;48.766;2.272;2024-02-04T06:44:16;6.45;;;1.73;;
10226;SDS011;15634;48.766;2.272;2024-02-04T06:46:42;3.25;;;1.60;;
10226;SDS011;15634;48.766;2.272;2024-02-04T06:49:08;7.90;;;3.22;;
10226;SDS011;15634;48.766;2.272;2024-02-04T06:51:34;3.63;;;2.30;;
10226;SDS011;15634;48.766;2.272;2024-02-04T06:54:00;4.15;;;2.38;;
10226;SDS011;15634;48.766;2.272;2024-02-04T06:56:26;4.57;;;1.75;;
10226;SDS011;15634;48.766;2.272;2024-02-04T06:58:52;3.33;;;1.98;;
10226;SDS011;15634;48.766;2.272;2024-02-04T07:01:18;6.80;;;1.88;;
10226;SDS011;15634;48.766;2.272;2024-02-04T07:03:44;4.50;;;1.88;;
10226;SDS011;15634;48.766;2.272;2024-02-04T07:06:10;3.85;;;1.67;;
10226;SDS011;15634;48.766;2.272;2024-02-04T07:08:36;4.03;;;1.95;;
10226;SDS011;15634;48.766;2.272;2024-02-04T07:11:02;3.78;;;1.70;;
10226;SDS011;15634;48.766;2.272;2024-02-04T07:13:28;3.80;;;1.90;;
10226;SDS011;15634;48.766;2.272;2024-02-04T07:15:54;4.20;;;1.80;;
10226;SDS011;15634;48.766;2.272;2024-02-04T07:18:20;3.90;;;1.40;;
10226;SDS011;15634;48.766;2.272;2024-02-04T07:20:47;4.75;;;1.50;;
10226;SDS011;15634;48.766;2.272;2024-02-04T07:23:13;7.18;;;1.80;;
10226;SDS011;15634;48.766;2.272;2024-02-04T07:25:39;3.45;;;1.88;;
10226;SDS011;15634;48.766;2.272;2024-02-04T07:28:05;4.60;;;1.65;;
10226;SDS011;15634;48.766;2.272;2024-02-04T07:30:31;6.75;;;2.20;;
10226;SDS011;15634;48.766;2.272;2024-02-04T07:32:56;3.97;;;1.92;;
10226;SDS011;15634;48.766;2.272;2024-02-04T07:35:23;4.90;;;2.15;;
10226;SDS011;15634;48.766;2.272;2024-02-04T07:37:49;3.88;;;2.00;;
10226;SDS011;15634;48.766;2.272;2024-02-04T07:40:15;3.13;;;2.00;;
10226;SDS011;15634;48.766;2.272;2024-02-04T07:42:41;3.58;;;1.88;;
10226;SDS011;15634;48.766;2.272;2024-02-04T07:45:06;3.78;;;1.70;;
10226;SDS011;15634;48.766;2.272;2024-02-04T07:47:34;5.80;;;1.90;;
10226;SDS011;15634;48.766;2.272;2024-02-04T07:50:00;4.30;;;1.80;;
10226;SDS011;15634;48.766;2.272;2024-02-04T07:52:26;3.22;;;1.85;;
10226;SDS011;15634;48.766;2.272;2024-02-04T07:54:52;4.05;;;1.85;;
10226;SDS011;15634;48.766;2.272;2024-02-04T07:57:17;3.45;;;2.00;;
10226;SDS011;15634;48.766;2.272;2024-02-04T07:59:43;5.60;;;1.90;;
10226;SDS011;15634;48.766;2.272;2024-02-04T08:02:09;4.10;;;1.92;;
10226;SDS011;15634;48.766;2.272;2024-02-04T08:04:35;3.42;;;1.80;;
10226;SDS011;15634;48.766;2.272;2024-02-04T08:07:01;3.70;;;1.88;;
10226;SDS011;15634;48.766;2.272;2024-02-04T08:09:28;4.13;;;1.98;;
10226;SDS011;15634;48.766;2.272;2024-02-04T08:11:54;3.83;;;1.90;;
10226;SDS011;15634;48.766;2.272;2024-02-04T08:14:20;4.05;;;2.00;;
10226;SDS011;15634;48.766;2.272;2024-02-04T08:16:45;7.15;;;2.10;;
10226;SDS011;15634;48.766;2.272;2024-02-04T08:19:13;3.20;;;2.17;;
10226;SDS011;15634;48.766;2.272;2024-02-04T08:21:39;3.17;;;1.98;;
10226;SDS011;15634;48.766;2.272;2024-02-04T08:24:05;3.53;;;2.05;;
10226;SDS011;15634;48.766;2.272;2024-02-04T08:26:31;3.15;;;2.00;;
10226;SDS011;15634;48.766;2.272;2024-02-04T08:28:57;3.70;;;2.13;;
10226;SDS011;15634;48.766;2.272;2024-02-04T08:31:23;4.47;;;2.10;;
10226;SDS011;15634;48.766;2.272;2024-02-04T08:33:49;5.22;;;2.30;;
10226;SDS011;15634;48.766;2.272;2024-02-04T08:36:15;5.35;;;1.90;;
10226;SDS011;15634;48.766;2.272;2024-02-04T08:38:42;3.03;;;1.98;;
10226;SDS011;15634;48.766;2.272;2024-02-04T08:41:08;2.90;;;2.08;;
10226;SDS011;15634;48.766;2.272;2024-02-04T08:43:34;4.78;;;2.15;;
10226;SDS011;15634;48.766;2.272;2024-02-04T08:46:00;2.95;;;1.98;;
10226;SDS011;15634;48.766;2.272;2024-02-04T08:48:26;2.15;;;1.90;;
10226;SDS011;15634;48.766;2.272;2024-02-04T08:50:52;2.42;;;1.65;;
10226;SDS011;15634;48.766;2.272;2024-02-04T08:53:19;3.22;;;1.52;;
10226;SDS011;15634;48.766;2.272;2024-02-04T08:55:45;2.25;;;1.73;;
10226;SDS011;15634;48.766;2.272;2024-02-04T08:58:11;5.63;;;1.90;;
10226;SDS011;15634;48.766;2.272;2024-02-04T09:00:37;2.03;;;1.63;;
10226;SDS011;15634;48.766;2.272;2024-02-04T09:03:03;7.78;;;2.30;;
10226;SDS011;15634;48.766;2.272;2024-02-04T09:05:29;5.28;;;2.65;;
10226;SDS011;15634;48.766;2.272;2024-02-04T09:07:55;4.93;;;2.10;;
10226;SDS011;15634;48.766;2.272;2024-02-04T09:10:21;5.07;;;1.83;;
10226;SDS011;15634;48.766;2.272;2024-02-04T09:12:47;3.63;;;1.60;;
10226;SDS011;15634;48.766;2.272;2024-02-04T09:15:13;1.75;;;1.58;;
10226;SDS011;15634;48.766;2.272;2024-02-04T09:17:39;2.97;;;1.80;;
10226;SDS011;15634;48.766;2.272;2024-02-04T09:20:05;3.30;;;1.40;;
10226;SDS011;15634;48.766;2.272;2024-02-04T09:22:32;2.15;;;1.52;;
10226;SDS011;15634;48.766;2.272;2024-02-04T09:24:58;2.88;;;1.70;;
10226;SDS011;15634;48.766;2.272;2024-02-04T09:27:24;1.48;;;1.25;;
10226;SDS011;15634;48.766;2.272;2024-02-04T09:29:50;2.65;;;1.50;;
10226;SDS011;15634;48.766;2.272;2024-02-04T09:32:16;2.97;;;1.30;;
10226;SDS011;15634;48.766;2.272;2024-02-04T09:34:42;2.58;;;1.00;;
10226;SDS011;15634;48.766;2.272;2024-02-04T09:37:08;1.90;;;1.20;;
10226;SDS011;15634;48.766;2.272;2024-02-04T09:39:34;5.25;;;2.88;;
10226;SDS011;15634;48.766;2.272;2024-02-04T09:42:00;3.90;;;2.53;;
10226;SDS011;15634;48.766;2.272;2024-02-04T09:44:26;4.05;;;2.25;;
10226;SDS011;15634;48.766;2.272;2024-02-04T09:46:57;14.27;;;6.18;;
10226;SDS011;15634;48.766;2.272;2024-02-04T09:49:25;2.35;;;1.70;;
10226;SDS011;15634;48.766;2.272;2024-02-04T09:51:51;1.23;;;1.13;;
10226;SDS011;15634;48.766;2.272;2024-02-04T09:54:17;1.35;;;1.10;;
10226;SDS011;15634;48.766;2.272;2024-02-04T09:56:44;4.03;;;1.80;;
10226;SDS011;15634;48.766;2.272;2024-02-04T09:59:10;3.70;;;1.33;;
10226;SDS011;15634;48.766;2.272;2024-02-04T10:01:36;1.77;;;1.20;;
10226;SDS011;15634;48.766;2.272;2024-02-04T10:04:02;2.97;;;1.27;;
10226;SDS011;15634;48.766;2.272;2024-02-04T10:06:28;2.63;;;1.25;;
10226;SDS011;15634;48.766;2.272;2024-02-04T10:08:54;1.52;;;0.98;;
10226;SDS011;15634;48.766;2.272;2024-02-04T10:11:21;3.67;;;1.10;;
10226;SDS011;15634;48.766;2.272;2024-02-04T10:13:47;2.50;;;1.13;;
10226;SDS011;15634;48.766;2.272;2024-02-04T10:16:14;1.15;;;1.05;;
10226;SDS011;15634;48.766;2.272;2024-02-04T10:18:46;1.83;;;1.20;;
10226;SDS011;15634;48.766;2.272;2024-02-04T10:21:16;1.48;;;1.05;;
10226;SDS011;15634;48.766;2.272;2024-02-04T10:23:43;3.63;;;1.42;;
10226;SDS011;15634;48.766;2.272;2024-02-04T10:26:09;1.50;;;0.93;;
10226;SDS011;15634;48.766;2.272;2024-02-04T10:28:36;1.83;;;1.45;;
10226;SDS011;15634;48.766;2.272;2024-02-04T10:31:02;1.40;;;0.90;;
10226;SDS011;15634;48.766;2.272;2024-02-04T10:33:31;1.17;;;1.05;;
10226;SDS011;15634;48.766;2.272;2024-02-04T10:35:57;1.20;;;0.90;;
10226;SDS011;15634;48.766;2.272;2024-02-04T10:38:23;2.28;;;0.88;;
10226;SDS011;15634;48.766;2.272;2024-02-04T10:40:53;1.38;;;0.98;;
10226;SDS011;15634;48.766;2.272;2024-02-04T10:43:19;1.45;;;1.10;;
10226;SDS011;15634;48.766;2.272;2024-02-04T10:45:46;1.17;;;1.08;;
10226;SDS011;15634;48.766;2.272;2024-02-04T10:48:14;2.22;;;0.90;;
10226;SDS011;15634;48.766;2.272;2024-02-04T10:50:41;1.73;;;1.15;;
10226;SDS011;15634;48.766;2.272;2024-02-04T10:53:08;1.15;;;1.05;;
10226;SDS011;15634;48.766;2.272;2024-02-04T10:55:38;0.65;;;0.65;;
10226;SDS011;15634;48.766;2.272;2024-02-04T10:58:07;1.42;;;1.08;;
10226;SDS011;15634;48.766;2.272;2024-02-04T11:00:33;1.77;;;0.98;;
10226;SDS011;15634;48.766;2.272;2024-02-04T11:03:00;1.63;;;1.13;;
10226;SDS011;15634;48.766;2.272;2024-02-04T11:05:27;1.52;;;1.17;;
10226;SDS011;15634;48.766;2.272;2024-02-04T11:07:53;2.10;;;1.35;;
10226;SDS011;15634;48.766;2.272;2024-02-04T11:10:19;1.83;;;1.52;;
10226;SDS011;15634;48.766;2.272;2024-02-04T11:12:45;1.60;;;1.25;;
10226;SDS011;15634;48.766;2.272;2024-02-04T11:15:12;1.85;;;1.35;;
10226;SDS011;15634;48.766;2.272;2024-02-04T11:20:35;1.88;;;1.20;;
10226;SDS011;15634;48.766;2.272;2024-02-04T11:25:59;1.00;;;0.90;;
10226;SDS011;15634;48.766;2.272;2024-02-04T11:28:25;1.35;;;1.02;;
10226;SDS011;15634;48.766;2.272;2024-02-04T11:30:52;1.00;;;0.90;;
10226;SDS011;15634;48.766;2.272;2024-02-04T11:33:18;1.13;;;1.02;;
10226;SDS011;15634;48.766;2.272;2024-02-04T11:35:45;1.40;;;0.90;;
10226;SDS011;15634;48.766;2.272;2024-02-04T11:38:11;0.98;;;0.73;;
10226;SDS011;15634;48.766;2.272;2024-02-04T11:40:38;1.77;;;0.90;;
10226;SDS011;15634;48.766;2.272;2024-02-04T11:43:05;0.80;;;0.70;;
10226;SDS011;15634;48.766;2.272;2024-02-04T11:45:31;1.73;;;0.93;;
10226;SDS011;15634;48.766;2.272;2024-02-04T11:48:00;1.58;;;0.98;;
10226;SDS011;15634;48.766;2.272;2024-02-04T11:50:27;0.82;;;0.82;;
10226;SDS011;15634;48.766;2.272;2024-02-04T11:53:04;4.05;;;1.25;;
10226;SDS011;15634;48.766;2.272;2024-02-04T11:55:31;3.28;;;1.02;;
10226;SDS011;15634;48.766;2.272;2024-02-04T11:57:56;1.08;;;1.00;;
10226;SDS011;15634;48.766;2.272;2024-02-04T12:00:23;3.22;;;1.00;;
10226;SDS011;15634;48.766;2.272;2024-02-04T12:02:59;2.15;;;0.80;;
10226;SDS011;15634;48.766;2.272;2024-02-04T12:05:26;2.05;;;1.13;;
10226;SDS011;15634;48.766;2.272;2024-02-04T12:07:52;1.58;;;0.80;;
10226;SDS011;15634;48.766;2.272;2024-02-04T12:10:19;2.25;;;1.15;;
10226;SDS011;15634;48.766;2.272;2024-02-04T12:12:45;1.73;;;1.10;;
10226;SDS011;15634;48.766;2.272;2024-02-04T12:15:11;3.08;;;0.90;;
10226;SDS011;15634;48.766;2.272;2024-02-04T12:17:37;0.82;;;0.80;;
10226;SDS011;15634;48.766;2.272;2024-02-04T12:20:03;1.10;;;1.00;;
10226;SDS011;15634;48.766;2.272;2024-02-04T12:22:31;2.63;;;1.88;;
10226;SDS011;15634;48.766;2.272;2024-02-04T12:24:58;0.77;;;0.77;;
10226;SDS011;15634;48.766;2.272;2024-02-04T12:27:25;0.90;;;0.90;;
10226;SDS011;15634;48.766;2.272;2024-02-04T12:29:51;1.13;;;1.00;;
10226;SDS011;15634;48.766;2.272;2024-02-04T12:32:17;0.85;;;0.85;;
10226;SDS011;15634;48.766;2.272;2024-02-04T12:34:47;0.77;;;0.77;;
10226;SDS011;15634;48.766;2.272;2024-02-04T12:37:14;0.90;;;0.73;;
10226;SDS011;15634;48.766;2.272;2024-02-04T12:39:40;2.60;;;1.42;;
10226;SDS011;15634;48.766;2.272;2024-02-04T12:42:08;1.55;;;1.25;;
10226;SDS011;15634;48.766;2.272;2024-02-04T12:44:34;2.13;;;1.25;;
10226;SDS011;15634;48.766;2.272;2024-02-04T12:47:00;1.67;;;0.90;;
10226;SDS011;15634;48.766;2.272;2024-02-04T12:49:27;2.08;;;1.02;;
10226;SDS011;15634;48.766;2.272;2024-02-04T12:52:03;1.02;;;0.93;;
10226;SDS011;15634;48.766;2.272;2024-02-04T12:54:29;1.63;;;1.30;;
10226;SDS011;15634;48.766;2.272;2024-02-04T12:56:55;2.75;;;0.90;;
10226;SDS011;15634;48.766;2.272;2024-02-04T13:04:23;1.00;;;0.90;;
10226;SDS011;15634;48.766;2.272;2024-02-04T13:06:49;0.77;;;0.77;;
10226;SDS011;15634;48.766;2.272;2024-02-04T13:09:16;1.77;;;1.00;;
10226;SDS011;15634;48.766;2.272;2024-02-04T13:11:42;2.50;;;1.13;;
10226;SDS011;15634;48.766;2.272;2024-02-04T13:14:08;1.30;;;1.00;;
10226;SDS011;15634;48.766;2.272;2024-02-04T13:16:34;1.67;;;1.30;;
10226;SDS011;15634;48.766;2.272;2024-02-04T13:19:03;0.90;;;0.85;;
10226;SDS011;15634;48.766;2.272;2024-02-04T13:21:29;1.05;;;0.95;;
10226;SDS011;15634;48.766;2.272;2024-02-04T13:23:58;1.35;;;1.10;;
10226;SDS011;15634;48.766;2.272;2024-02-04T13:26:24;1.20;;;1.15;;
10226;SDS011;15634;48.766;2.272;2024-02-04T13:28:50;1.60;;;1.10;;
10226;SDS011;15634;48.766;2.272;2024-02-04T13:31:15;2.35;;;1.30;;
10226;SDS011;15634;48.766;2.272;2024-02-04T13:33:41;1.25;;;1.00;;
10226;SDS011;15634;48.766;2.272;2024-02-04T13:36:08;1.42;;;1.02;;
10226;SDS011;15634;48.766;2.272;2024-02-04T13:38:37;3.20;;;1.10;;
10226;SDS011;15634;48.766;2.272;2024-02-04T13:41:03;1.55;;;0.93;;
10226;SDS011;15634;48.766;2.272;2024-02-04T13:43:31;1.80;;;1.00;;
10226;SDS011;15634;48.766;2.272;2024-02-04T13:45:57;1.33;;;1.10;;
10226;SDS011;15634;48.766;2.272;2024-02-04T13:48:23;1.52;;;1.08;;
10226;SDS011;15634;48.766;2.272;2024-02-04T13:50:51;2.38;;;1.02;;
10226;SDS011;15634;48.766;2.272;2024-02-04T13:53:19;2.13;;;0.90;;
10226;SDS011;15634;48.766;2.272;2024-02-04T13:55:46;2.55;;;1.25;;
10226;SDS011;15634;48.766;2.272;2024-02-04T13:58:12;1.98;;;1.10;;
10226;SDS011;15634;48.766;2.272;2024-02-04T14:00:39;4.63;;;1.30;;
10226;SDS011;15634;48.766;2.272;2024-02-04T14:03:05;2.60;;;1.55;;
10226;SDS011;15634;48.766;2.272;2024-02-04T14:05:34;0.93;;;0.93;;
10226;SDS011;15634;48.766;2.272;2024-02-04T14:08:00;3.17;;;1.20;;
10226;SDS011;15634;48.766;2.272;2024-02-04T14:10:28;3.45;;;1.30;;
10226;SDS011;15634;48.766;2.272;2024-02-04T14:12:54;1.63;;;1.20;;
10226;SDS011;15634;48.766;2.272;2024-02-04T14:15:20;1.30;;;1.20;;
10226;SDS011;15634;48.766;2.272;2024-02-04T14:17:46;1.63;;;1.20;;
10226;SDS011;15634;48.766;2.272;2024-02-04T14:20:12;1.73;;;1.23;;
10226;SDS011;15634;48.766;2.272;2024-02-04T14:22:38;1.88;;;1.10;;
10226;SDS011;15634;48.766;2.272;2024-02-04T14:25:04;1.67;;;1.17;;
10226;SDS011;15634;48.766;2.272;2024-02-04T14:27:31;3.50;;;1.70;;
10226;SDS011;15634;48.766;2.272;2024-02-04T14:29:56;6.57;;;2.15;;
10226;SDS011;15634;48.766;2.272;2024-02-04T14:32:22;6.90;;;3.10;;
10226;SDS011;15634;48.766;2.272;2024-02-04T14:34:48;4.47;;;1.52;;
10226;SDS011;15634;48.766;2.272;2024-02-04T14:37:14;1.83;;;1.50;;
10226;SDS011;15634;48.766;2.272;2024-02-04T14:39:40;2.28;;;1.40;;
10226;SDS011;15634;48.766;2.272;2024-02-04T14:42:08;2.58;;;1.50;;
10226;SDS011;15634;48.766;2.272;2024-02-04T14:44:34;3.42;;;1.60;;
10226;SDS011;15634;48.766;2.272;2024-02-04T14:47:00;2.72;;;1.70;;
10226;SDS011;15634;48.766;2.272;2024-02-04T14:49:26;2.13;;;1.67;;
10226;SDS011;15634;48.766;2.272;2024-02-04T14:51:52;2.03;;;1.33;;
10226;SDS011;15634;48.766;2.272;2024-02-04T14:54:18;3.33;;;1.63;;
10226;SDS011;15634;48.766;2.272;2024-02-04T14:56:44;3.53;;;1.60;;
10226;SDS011;15634;48.766;2.272;2024-02-04T14:59:11;8.25;;;4.00;;